sensor_id;sensor_type;location;lat;lon;timestamp;pressure;altitude;pressure_sealevel;temperature;humidity
63554;BME280;49699;48.072;7.800;2023-04-20T00:00:43;99326.47;;;7.24;85.36
63554;BME280;49699;48.072;7.800;2023-04-20T00:03:08;99318.78;;;7.23;85.32
63554;BME280;49699;48.072;7.800;2023-04-20T00:05:33;99317.94;;;7.22;85.41
63554;BME280;49699;48.072;7.800;2023-04-20T00:07:58;99311.91;;;7.22;85.39
63554;BME280;49699;48.072;7.800;2023-04-20T00:10:25;99312.06;;;7.19;85.86
63554;BME280;49699;48.072;7.800;2023-04-20T00:12:50;99308.84;;;7.14;85.93
63554;BME280;49699;48.072;7.800;2023-04-20T00:15:16;99306.34;;;7.12;85.88
63554;BME280;49699;48.072;7.800;2023-04-20T00:17:41;99297.78;;;7.10;85.98
63554;BME280;49699;48.072;7.800;2023-04-20T00:20:07;99287.56;;;7.07;86.02
63554;BME280;49699;48.072;7.800;2023-04-20T00:22:34;99285.91;;;7.06;86.39
63554;BME280;49699;48.072;7.800;2023-04-20T00:24:59;99284.22;;;7.05;86.21
63554;BME280;49699;48.072;7.800;2023-04-20T00:27:25;99286.81;;;7.05;86.32
63554;BME280;49699;48.072;7.800;2023-04-20T00:29:50;99271.34;;;7.04;86.40
63554;BME280;49699;48.072;7.800;2023-04-20T00:32:15;99272.19;;;7.04;86.47
63554;BME280;49699;48.072;7.800;2023-04-20T00:34:41;99268.81;;;7.02;86.38
63554;BME280;49699;48.072;7.800;2023-04-20T00:37:06;99264.63;;;7.00;86.38
63554;BME280;49699;48.072;7.800;2023-04-20T00:39:31;99257.81;;;6.99;86.55
63554;BME280;49699;48.072;7.800;2023-04-20T00:42:04;99255.28;;;6.97;86.76
63554;BME280;49699;48.072;7.800;2023-04-20T00:44:30;99251.91;;;6.95;86.76
63554;BME280;49699;48.072;7.800;2023-04-20T00:46:55;99254.50;;;6.95;86.73
63554;BME280;49699;48.072;7.800;2023-04-20T00:49:22;99245.91;;;6.94;86.71
63554;BME280;49699;48.072;7.800;2023-04-20T00:51:47;99243.31;;;6.94;86.80
63554;BME280;49699;48.072;7.800;2023-04-20T00:54:13;99243.38;;;6.93;86.90
63554;BME280;49699;48.072;7.800;2023-04-20T00:56:41;99228.00;;;6.90;86.84
63554;BME280;49699;48.072;7.800;2023-04-20T00:59:06;99240.94;;;6.90;86.95
63554;BME280;49699;48.072;7.800;2023-04-20T01:01:32;99229.81;;;6.88;86.95
63554;BME280;49699;48.072;7.800;2023-04-20T01:03:57;99229.88;;;6.86;87.17
63554;BME280;49699;48.072;7.800;2023-04-20T01:06:22;99222.97;;;6.87;87.39
63554;BME280;49699;48.072;7.800;2023-04-20T01:08:51;99216.94;;;6.86;87.17
63554;BME280;49699;48.072;7.800;2023-04-20T01:11:16;99223.03;;;6.85;87.19
63554;BME280;49699;48.072;7.800;2023-04-20T01:13:42;99224.91;;;6.82;87.24
63554;BME280;49699;48.072;7.800;2023-04-20T01:16:07;99223.41;;;6.78;87.22
63554;BME280;49699;48.072;7.800;2023-04-20T01:21:08;99207.56;;;6.65;87.67
63554;BME280;49699;48.072;7.800;2023-04-20T01:23:34;99211.97;;;6.63;87.73
63554;BME280;49699;48.072;7.800;2023-04-20T01:26:09;99207.88;;;6.59;88.01
63554;BME280;49699;48.072;7.800;2023-04-20T01:28:34;99199.34;;;6.57;88.01
63554;BME280;49699;48.072;7.800;2023-04-20T01:31:01;99196.69;;;6.58;88.26
63554;BME280;49699;48.072;7.800;2023-04-20T01:33:26;99194.88;;;6.60;87.84
63554;BME280;49699;48.072;7.800;2023-04-20T01:35:52;99193.06;;;6.63;87.85
63554;BME280;49699;48.072;7.800;2023-04-20T01:38:18;99190.47;;;6.63;87.83
63554;BME280;49699;48.072;7.800;2023-04-20T01:40:43;99186.13;;;6.63;87.83
63554;BME280;49699;48.072;7.800;2023-04-20T01:43:09;99184.38;;;6.63;87.61
63554;BME280;49699;48.072;7.800;2023-04-20T01:45:34;99177.56;;;6.63;87.70
63554;BME280;49699;48.072;7.800;2023-04-20T01:48:00;99169.78;;;6.63;87.79
63554;BME280;49699;48.072;7.800;2023-04-20T01:50:25;99173.34;;;6.60;87.59
63554;BME280;49699;48.072;7.800;2023-04-20T01:52:50;99170.00;;;6.58;87.74
63554;BME280;49699;48.072;7.800;2023-04-20T01:55:16;99167.47;;;6.56;87.90
63554;BME280;49699;48.072;7.800;2023-04-20T01:57:41;99162.56;;;6.50;87.64
63554;BME280;49699;48.072;7.800;2023-04-20T02:00:08;99166.28;;;6.45;87.84
63554;BME280;49699;48.072;7.800;2023-04-20T02:02:40;99164.75;;;6.41;87.68
63554;BME280;49699;48.072;7.800;2023-04-20T02:05:06;99160.69;;;6.35;87.88
63554;BME280;49699;48.072;7.800;2023-04-20T02:07:32;99162.56;;;6.32;87.84
63554;BME280;49699;48.072;7.800;2023-04-20T02:09:58;99154.94;;;6.28;87.28
63554;BME280;49699;48.072;7.800;2023-04-20T02:12:23;99159.25;;;6.28;87.83
63554;BME280;49699;48.072;7.800;2023-04-20T02:14:48;99140.34;;;6.27;87.38
63554;BME280;49699;48.072;7.800;2023-04-20T02:17:14;99142.91;;;6.27;87.13
63554;BME280;49699;48.072;7.800;2023-04-20T02:19:39;99148.03;;;6.29;86.89
63554;BME280;49699;48.072;7.800;2023-04-20T02:22:04;99141.09;;;6.30;86.76
63554;BME280;49699;48.072;7.800;2023-04-20T02:24:30;99134.25;;;6.28;86.58
63554;BME280;49699;48.072;7.800;2023-04-20T02:26:56;99130.00;;;6.27;86.44
63554;BME280;49699;48.072;7.800;2023-04-20T02:29:21;99132.56;;;6.27;86.12
63554;BME280;49699;48.072;7.800;2023-04-20T02:31:46;99130.16;;;6.24;85.94
63554;BME280;49699;48.072;7.800;2023-04-20T02:34:14;99131.06;;;6.23;86.15
63554;BME280;49699;48.072;7.800;2023-04-20T02:36:39;99133.78;;;6.20;85.53
63554;BME280;49699;48.072;7.800;2023-04-20T02:39:05;99125.31;;;6.17;85.40
63554;BME280;49699;48.072;7.800;2023-04-20T02:41:32;99131.53;;;6.13;85.27
63554;BME280;49699;48.072;7.800;2023-04-20T02:44:00;99127.50;;;6.07;84.69
63554;BME280;49699;48.072;7.800;2023-04-20T02:46:26;99120.84;;;6.02;84.40
63554;BME280;49699;48.072;7.800;2023-04-20T02:48:51;99113.22;;;5.99;84.58
63554;BME280;49699;48.072;7.800;2023-04-20T02:51:17;99115.09;;;5.95;83.97
63554;BME280;49699;48.072;7.800;2023-04-20T02:53:44;99111.91;;;5.90;82.83
63554;BME280;49699;48.072;7.800;2023-04-20T02:56:27;99107.84;;;5.83;82.33
63554;BME280;49699;48.072;7.800;2023-04-20T02:58:56;99116.69;;;5.77;82.40
63554;BME280;49699;48.072;7.800;2023-04-20T03:01:45;99110.75;;;5.75;82.30
63554;BME280;49699;48.072;7.800;2023-04-20T03:04:16;99111.66;;;5.74;82.08
63554;BME280;49699;48.072;7.800;2023-04-20T03:06:53;99114.34;;;5.73;81.86
63554;BME280;49699;48.072;7.800;2023-04-20T03:09:23;99114.47;;;5.70;81.67
63554;BME280;49699;48.072;7.800;2023-04-20T03:11:57;99111.22;;;5.65;81.76
63554;BME280;49699;48.072;7.800;2023-04-20T03:14:58;99119.16;;;5.60;81.99
63554;BME280;49699;48.072;7.800;2023-04-20T03:17:36;99105.47;;;5.58;81.93
63554;BME280;49699;48.072;7.800;2023-04-20T03:20:01;99101.28;;;5.55;81.82
63554;BME280;49699;48.072;7.800;2023-04-20T03:22:27;99099.63;;;5.54;81.78
63554;BME280;49699;48.072;7.800;2023-04-20T03:24:56;99099.69;;;5.53;81.76
63554;BME280;49699;48.072;7.800;2023-04-20T03:27:40;99104.91;;;5.51;81.72
63554;BME280;49699;48.072;7.800;2023-04-20T03:30:10;99101.56;;;5.49;81.76
63554;BME280;49699;48.072;7.800;2023-04-20T03:32:35;99100.00;;;5.45;81.97
63554;BME280;49699;48.072;7.800;2023-04-20T03:35:01;99092.44;;;5.41;81.59
63554;BME280;49699;48.072;7.800;2023-04-20T03:37:26;99102.16;;;5.36;81.40
63554;BME280;49699;48.072;7.800;2023-04-20T03:39:52;99093.75;;;5.31;81.43
63554;BME280;49699;48.072;7.800;2023-04-20T03:42:17;99095.56;;;5.29;81.57
63554;BME280;49699;48.072;7.800;2023-04-20T03:44:43;99094.72;;;5.28;81.70
63554;BME280;49699;48.072;7.800;2023-04-20T03:47:09;99097.34;;;5.27;81.36
63554;BME280;49699;48.072;7.800;2023-04-20T03:49:35;99093.16;;;5.24;81.45
63554;BME280;49699;48.072;7.800;2023-04-20T03:52:00;99086.44;;;5.20;81.61
63554;BME280;49699;48.072;7.800;2023-04-20T03:54:26;99082.31;;;5.16;81.23
63554;BME280;49699;48.072;7.800;2023-04-20T03:56:51;99090.19;;;5.13;81.10
63554;BME280;49699;48.072;7.800;2023-04-20T03:59:17;99091.16;;;5.10;81.05
63554;BME280;49699;48.072;7.800;2023-04-20T04:01:44;99084.50;;;5.05;80.55
63554;BME280;49699;48.072;7.800;2023-04-20T04:04:11;99081.34;;;4.98;80.32
63554;BME280;49699;48.072;7.800;2023-04-20T04:06:36;99089.25;;;4.94;80.22
63554;BME280;49699;48.072;7.800;2023-04-20T04:09:02;99086.97;;;4.86;80.28
63554;BME280;49699;48.072;7.800;2023-04-20T04:11:28;99084.66;;;4.80;79.97
63554;BME280;49699;48.072;7.800;2023-04-20T04:13:57;99085.84;;;4.71;78.56
63554;BME280;49699;48.072;7.800;2023-04-20T04:16:23;99081.97;;;4.61;78.16
63554;BME280;49699;48.072;7.800;2023-04-20T04:18:49;99082.19;;;4.55;78.20
63554;BME280;49699;48.072;7.800;2023-04-20T04:21:14;99080.72;;;4.48;77.52
63554;BME280;49699;48.072;7.800;2023-04-20T04:23:44;99079.38;;;4.39;78.02
63554;BME280;49699;48.072;7.800;2023-04-20T04:26:29;99080.47;;;4.32;77.40
63554;BME280;49699;48.072;7.800;2023-04-20T04:28:56;99087.56;;;4.27;78.14
63554;BME280;49699;48.072;7.800;2023-04-20T04:31:22;99080.06;;;4.21;77.50
63554;BME280;49699;48.072;7.800;2023-04-20T04:33:47;99076.91;;;4.13;77.81
63554;BME280;49699;48.072;7.800;2023-04-20T04:36:25;99073.75;;;4.06;77.95
63554;BME280;49699;48.072;7.800;2023-04-20T04:38:51;99079.91;;;4.02;78.41
63554;BME280;49699;48.072;7.800;2023-04-20T04:41:17;99075.81;;;3.97;78.30
63554;BME280;49699;48.072;7.800;2023-04-20T04:43:45;99080.31;;;3.92;78.75
63554;BME280;49699;48.072;7.800;2023-04-20T04:46:22;99083.13;;;3.84;78.56
63554;BME280;49699;48.072;7.800;2023-04-20T04:48:49;99083.41;;;3.76;78.47
63554;BME280;49699;48.072;7.800;2023-04-20T04:51:17;99075.91;;;3.70;78.44
63554;BME280;49699;48.072;7.800;2023-04-20T04:53:42;99073.41;;;3.69;78.46
63554;BME280;49699;48.072;7.800;2023-04-20T04:56:10;99076.97;;;3.65;78.69
63554;BME280;49699;48.072;7.800;2023-04-20T04:58:36;99079.03;;;3.55;78.17
63554;BME280;49699;48.072;7.800;2023-04-20T05:01:01;99088.72;;;3.47;78.34
63554;BME280;49699;48.072;7.800;2023-04-20T05:03:26;99079.44;;;3.43;78.02
63554;BME280;49699;48.072;7.800;2023-04-20T05:05:51;99081.34;;;3.38;78.63
63554;BME280;49699;48.072;7.800;2023-04-20T05:08:17;99091.72;;;3.35;78.76
63554;BME280;49699;48.072;7.800;2023-04-20T05:10:42;99085.00;;;3.31;78.74
63554;BME280;49699;48.072;7.800;2023-04-20T05:13:07;99093.56;;;3.31;78.41
63554;BME280;49699;48.072;7.800;2023-04-20T05:15:33;99098.66;;;3.33;78.80
63554;BME280;49699;48.072;7.800;2023-04-20T05:17:58;99090.84;;;3.36;78.34
63554;BME280;49699;48.072;7.800;2023-04-20T05:20:23;99095.81;;;3.40;78.68
63554;BME280;49699;48.072;7.800;2023-04-20T05:22:48;99090.66;;;3.40;78.42
63554;BME280;49699;48.072;7.800;2023-04-20T05:25:14;99083.78;;;3.41;78.26
63554;BME280;49699;48.072;7.800;2023-04-20T05:27:39;99081.16;;;3.42;78.41
63554;BME280;49699;48.072;7.800;2023-04-20T05:30:05;99090.56;;;3.43;78.08
63554;BME280;49699;48.072;7.800;2023-04-20T05:32:30;99093.03;;;3.46;78.49
63554;BME280;49699;48.072;7.800;2023-04-20T05:34:55;99087.94;;;3.45;78.25
63554;BME280;49699;48.072;7.800;2023-04-20T05:37:22;99084.63;;;3.41;78.28
63554;BME280;49699;48.072;7.800;2023-04-20T05:39:47;99087.28;;;3.40;78.46
63554;BME280;49699;48.072;7.800;2023-04-20T05:42:13;99084.63;;;3.41;78.46
63554;BME280;49699;48.072;7.800;2023-04-20T05:44:38;99084.47;;;3.46;78.21
63554;BME280;49699;48.072;7.800;2023-04-20T05:47:05;99086.94;;;3.49;78.46
63554;BME280;49699;48.072;7.800;2023-04-20T05:49:32;99085.06;;;3.54;78.52
63554;BME280;49699;48.072;7.800;2023-04-20T05:51:57;99083.00;;;3.64;78.25
63554;BME280;49699;48.072;7.800;2023-04-20T05:54:23;99085.06;;;3.77;77.88
63554;BME280;49699;48.072;7.800;2023-04-20T05:56:48;99093.44;;;3.84;77.63
63554;BME280;49699;48.072;7.800;2023-04-20T05:59:13;99082.81;;;3.93;77.60
63554;BME280;49699;48.072;7.800;2023-04-20T06:01:39;99084.31;;;3.99;77.45
63554;BME280;49699;48.072;7.800;2023-04-20T06:04:04;99078.06;;;4.06;77.06
63554;BME280;49699;48.072;7.800;2023-04-20T06:06:30;99088.72;;;4.18;76.63
63554;BME280;49699;48.072;7.800;2023-04-20T06:08:55;99079.59;;;4.33;76.29
63554;BME280;49699;48.072;7.800;2023-04-20T06:11:22;99076.25;;;4.53;76.22
63554;BME280;49699;48.072;7.800;2023-04-20T06:13:47;99083.75;;;4.81;75.66
63554;BME280;49699;48.072;7.800;2023-04-20T06:16:12;99087.06;;;5.05;74.89
63554;BME280;49699;48.072;7.800;2023-04-20T06:18:38;99089.09;;;5.18;74.19
63554;BME280;49699;48.072;7.800;2023-04-20T06:21:03;99088.81;;;5.24;74.14
63554;BME280;49699;48.072;7.800;2023-04-20T06:23:28;99081.09;;;5.24;74.13
63554;BME280;49699;48.072;7.800;2023-04-20T06:25:53;99083.66;;;5.24;73.88
63554;BME280;49699;48.072;7.800;2023-04-20T06:28:19;99082.81;;;5.24;73.93
63554;BME280;49699;48.072;7.800;2023-04-20T06:30:44;99082.66;;;5.29;74.31
63554;BME280;49699;48.072;7.800;2023-04-20T06:33:09;99080.13;;;5.27;74.09
63554;BME280;49699;48.072;7.800;2023-04-20T06:35:40;99078.38;;;5.28;74.25
63554;BME280;49699;48.072;7.800;2023-04-20T06:38:06;99080.13;;;5.27;74.31
63554;BME280;49699;48.072;7.800;2023-04-20T06:40:31;99075.94;;;5.24;74.30
63554;BME280;49699;48.072;7.800;2023-04-20T06:42:56;99085.34;;;5.26;74.82
63554;BME280;49699;48.072;7.800;2023-04-20T06:45:22;99082.88;;;5.22;74.91
63554;BME280;49699;48.072;7.800;2023-04-20T06:47:47;99085.47;;;5.22;74.69
63554;BME280;49699;48.072;7.800;2023-04-20T06:50:12;99079.41;;;5.23;74.78
63554;BME280;49699;48.072;7.800;2023-04-20T06:52:38;99076.94;;;5.20;74.78
63554;BME280;49699;48.072;7.800;2023-04-20T06:55:04;99076.22;;;5.18;74.68
63554;BME280;49699;48.072;7.800;2023-04-20T06:57:29;99083.22;;;5.15;74.55
63554;BME280;49699;48.072;7.800;2023-04-20T06:59:54;99077.34;;;5.11;74.40
63554;BME280;49699;48.072;7.800;2023-04-20T07:02:20;99073.88;;;5.12;74.67
63554;BME280;49699;48.072;7.800;2023-04-20T07:04:45;99067.56;;;5.19;74.88
63554;BME280;49699;48.072;7.800;2023-04-20T07:07:10;99077.59;;;5.26;74.51
63554;BME280;49699;48.072;7.800;2023-04-20T07:09:35;99073.75;;;5.36;74.24
63554;BME280;49699;48.072;7.800;2023-04-20T07:12:01;99071.50;;;5.48;73.94
63554;BME280;49699;48.072;7.800;2023-04-20T07:14:26;99075.28;;;5.60;73.64
63554;BME280;49699;48.072;7.800;2023-04-20T07:16:52;99073.84;;;5.73;73.73
63554;BME280;49699;48.072;7.800;2023-04-20T07:19:17;99063.72;;;5.89;73.47
63554;BME280;49699;48.072;7.800;2023-04-20T07:21:42;99067.69;;;6.15;73.01
63554;BME280;49699;48.072;7.800;2023-04-20T07:24:08;99069.19;;;6.39;72.10
63554;BME280;49699;48.072;7.800;2023-04-20T07:26:33;99065.34;;;6.65;71.11
63554;BME280;49699;48.072;7.800;2023-04-20T07:28:58;99067.91;;;6.84;71.07
63554;BME280;49699;48.072;7.800;2023-04-20T07:31:23;99064.41;;;7.02;70.50
63554;BME280;49699;48.072;7.800;2023-04-20T07:33:49;99068.84;;;7.17;70.06
63554;BME280;49699;48.072;7.800;2023-04-20T07:36:14;99065.19;;;7.21;69.86
63554;BME280;49699;48.072;7.800;2023-04-20T07:38:40;99056.66;;;7.19;69.75
63554;BME280;49699;48.072;7.800;2023-04-20T07:41:08;99066.34;;;7.16;69.81
63554;BME280;49699;48.072;7.800;2023-04-20T07:43:34;99062.53;;;7.06;70.05
63554;BME280;49699;48.072;7.800;2023-04-20T07:46:00;99064.66;;;6.97;70.42
63554;BME280;49699;48.072;7.800;2023-04-20T07:48:25;99062.06;;;6.97;70.54
63554;BME280;49699;48.072;7.800;2023-04-20T07:50:50;99057.56;;;7.01;70.56
63554;BME280;49699;48.072;7.800;2023-04-20T07:53:16;99060.00;;;7.04;70.47
63554;BME280;49699;48.072;7.800;2023-04-20T07:55:41;99053.78;;;7.08;69.91
63554;BME280;49699;48.072;7.800;2023-04-20T07:58:06;99053.84;;;7.07;70.16
63554;BME280;49699;48.072;7.800;2023-04-20T08:00:31;99051.66;;;7.16;70.11
63554;BME280;49699;48.072;7.800;2023-04-20T08:02:57;99041.19;;;7.52;68.98
63554;BME280;49699;48.072;7.800;2023-04-20T08:05:22;99043.50;;;7.90;67.99
63554;BME280;49699;48.072;7.800;2023-04-20T08:07:48;99041.97;;;8.19;66.91
63554;BME280;49699;48.072;7.800;2023-04-20T08:10:13;99036.13;;;8.31;66.36
63554;BME280;49699;48.072;7.800;2023-04-20T08:12:39;99032.22;;;8.40;66.34
63554;BME280;49699;48.072;7.800;2023-04-20T08:15:04;99030.03;;;8.48;66.18
63554;BME280;49699;48.072;7.800;2023-04-20T08:17:31;99032.09;;;8.73;65.32
63554;BME280;49699;48.072;7.800;2023-04-20T08:19:56;99023.47;;;9.02;64.43
63554;BME280;49699;48.072;7.800;2023-04-20T08:22:21;99021.66;;;9.18;63.90
63554;BME280;49699;48.072;7.800;2023-04-20T08:24:51;99014.00;;;9.31;63.74
63554;BME280;49699;48.072;7.800;2023-04-20T08:27:16;99016.13;;;9.38;63.47
63554;BME280;49699;48.072;7.800;2023-04-20T08:29:41;99015.97;;;9.42;63.39
63554;BME280;49699;48.072;7.800;2023-04-20T08:32:06;99009.31;;;9.66;62.81
63554;BME280;49699;48.072;7.800;2023-04-20T08:34:33;99011.56;;;10.13;61.92
63554;BME280;49699;48.072;7.800;2023-04-20T08:36:58;99007.84;;;10.58;60.60
63554;BME280;49699;48.072;7.800;2023-04-20T08:39:23;99001.84;;;11.10;59.52
63554;BME280;49699;48.072;7.800;2023-04-20T08:41:49;99001.97;;;11.46;58.47
63554;BME280;49699;48.072;7.800;2023-04-20T08:44:19;99002.50;;;11.64;57.09
63554;BME280;49699;48.072;7.800;2023-04-20T08:46:45;98998.00;;;11.66;56.97
63554;BME280;49699;48.072;7.800;2023-04-20T08:49:11;98999.75;;;11.66;56.53
63554;BME280;49699;48.072;7.800;2023-04-20T08:51:38;99006.03;;;11.63;56.70
63554;BME280;49699;48.072;7.800;2023-04-20T08:54:03;99001.97;;;11.59;56.75
63554;BME280;49699;48.072;7.800;2023-04-20T08:56:37;98998.53;;;11.59;56.80
63554;BME280;49699;48.072;7.800;2023-04-20T08:59:02;98995.19;;;11.57;56.73
63554;BME280;49699;48.072;7.800;2023-04-20T09:01:29;99000.50;;;11.55;56.89
63554;BME280;49699;48.072;7.800;2023-04-20T09:03:55;99003.94;;;11.56;56.88
63554;BME280;49699;48.072;7.800;2023-04-20T09:06:20;98999.03;;;11.51;56.99
63554;BME280;49699;48.072;7.800;2023-04-20T09:08:47;98985.81;;;11.41;56.59
63554;BME280;49699;48.072;7.800;2023-04-20T09:11:25;98990.59;;;11.35;56.82
63554;BME280;49699;48.072;7.800;2023-04-20T09:14:00;98994.03;;;11.35;56.98
63554;BME280;49699;48.072;7.800;2023-04-20T09:16:26;98992.69;;;11.30;56.82
63554;BME280;49699;48.072;7.800;2023-04-20T09:18:52;98986.34;;;11.21;56.61
63554;BME280;49699;48.072;7.800;2023-04-20T09:21:18;98991.75;;;11.18;57.24
63554;BME280;49699;48.072;7.800;2023-04-20T09:23:43;98977.25;;;11.14;57.07
63554;BME280;49699;48.072;7.800;2023-04-20T09:26:19;98978.72;;;11.18;57.04
63554;BME280;49699;48.072;7.800;2023-04-20T09:28:45;98972.78;;;11.29;56.59
63554;BME280;49699;48.072;7.800;2023-04-20T09:31:17;98969.34;;;11.41;55.67
63554;BME280;49699;48.072;7.800;2023-04-20T09:33:43;98969.34;;;11.79;54.53
63554;BME280;49699;48.072;7.800;2023-04-20T09:36:08;98967.97;;;12.23;52.86
63554;BME280;49699;48.072;7.800;2023-04-20T09:38:35;98966.34;;;12.80;51.13
63554;BME280;49699;48.072;7.800;2023-04-20T09:41:00;98962.13;;;13.70;49.12
63554;BME280;49699;48.072;7.800;2023-04-20T09:43:26;98960.09;;;14.50;47.12
63554;BME280;49699;48.072;7.800;2023-04-20T09:45:52;98960.94;;;14.72;46.15
63554;BME280;49699;48.072;7.800;2023-04-20T09:48:18;98957.97;;;14.33;46.64
63554;BME280;49699;48.072;7.800;2023-04-20T09:50:45;98961.16;;;13.94;47.30
63554;BME280;49699;48.072;7.800;2023-04-20T09:53:12;98966.16;;;13.85;47.34
63554;BME280;49699;48.072;7.800;2023-04-20T09:55:37;98949.94;;;14.14;46.78
63554;BME280;49699;48.072;7.800;2023-04-20T09:58:03;98947.78;;;14.62;45.74
63554;BME280;49699;48.072;7.800;2023-04-20T10:00:28;98959.28;;;14.71;45.06
63554;BME280;49699;48.072;7.800;2023-04-20T10:02:54;98954.38;;;14.34;45.31
63554;BME280;49699;48.072;7.800;2023-04-20T10:05:31;98956.00;;;14.03;45.83
63554;BME280;49699;48.072;7.800;2023-04-20T10:07:59;98958.91;;;13.89;46.08
63554;BME280;49699;48.072;7.800;2023-04-20T10:10:27;98957.78;;;14.03;45.58
63554;BME280;49699;48.072;7.800;2023-04-20T10:12:54;98959.59;;;13.91;45.64
63554;BME280;49699;48.072;7.800;2023-04-20T10:15:20;98957.22;;;13.66;45.79
63554;BME280;49699;48.072;7.800;2023-04-20T10:17:46;98954.97;;;13.50;46.41
63554;BME280;49699;48.072;7.800;2023-04-20T10:20:22;98959.22;;;13.29;46.99
63554;BME280;49699;48.072;7.800;2023-04-20T10:22:48;98957.16;;;13.10;47.40
63554;BME280;49699;48.072;7.800;2023-04-20T10:25:16;98949.06;;;13.02;47.70
63554;BME280;49699;48.072;7.800;2023-04-20T10:27:55;98951.69;;;13.13;47.69
63554;BME280;49699;48.072;7.800;2023-04-20T10:30:21;98951.91;;;13.10;47.65
63554;BME280;49699;48.072;7.800;2023-04-20T10:32:47;98958.69;;;13.01;48.01
63554;BME280;49699;48.072;7.800;2023-04-20T10:35:12;98955.88;;;12.80;48.44
63554;BME280;49699;48.072;7.800;2023-04-20T10:37:48;98955.47;;;12.63;48.95
63554;BME280;49699;48.072;7.800;2023-04-20T10:40:14;98947.31;;;12.43;49.03
63554;BME280;49699;48.072;7.800;2023-04-20T10:42:43;98950.38;;;12.37;49.21
63554;BME280;49699;48.072;7.800;2023-04-20T10:45:08;98945.50;;;12.33;49.26
63554;BME280;49699;48.072;7.800;2023-04-20T10:47:34;98944.94;;;12.40;49.30
63554;BME280;49699;48.072;7.800;2023-04-20T10:50:11;98944.06;;;12.52;49.12
63554;BME280;49699;48.072;7.800;2023-04-20T10:52:38;98944.38;;;12.72;48.82
63554;BME280;49699;48.072;7.800;2023-04-20T10:55:04;98939.50;;;12.78;48.41
63554;BME280;49699;48.072;7.800;2023-04-20T10:57:29;98933.44;;;12.78;48.33
63554;BME280;49699;48.072;7.800;2023-04-20T10:59:55;98937.13;;;12.75;48.50
63554;BME280;49699;48.072;7.800;2023-04-20T11:02:20;98936.28;;;12.75;48.48
63554;BME280;49699;48.072;7.800;2023-04-20T11:04:45;98928.84;;;12.81;48.58
63554;BME280;49699;48.072;7.800;2023-04-20T11:07:11;98926.72;;;12.86;48.06
63554;BME280;49699;48.072;7.800;2023-04-20T11:09:39;98925.16;;;12.84;48.22
63554;BME280;49699;48.072;7.800;2023-04-20T11:12:07;98925.00;;;12.74;48.28
63554;BME280;49699;48.072;7.800;2023-04-20T11:14:33;98923.75;;;12.56;48.77
63554;BME280;49699;48.072;7.800;2023-04-20T11:16:59;98930.50;;;12.47;49.15
63554;BME280;49699;48.072;7.800;2023-04-20T11:21:56;98921.00;;;12.23;49.46
63554;BME280;49699;48.072;7.800;2023-04-20T11:24:22;98918.84;;;12.16;49.50
63554;BME280;49699;48.072;7.800;2023-04-20T11:26:48;98915.00;;;12.09;49.54
63554;BME280;49699;48.072;7.800;2023-04-20T11:31:59;98918.13;;;12.14;49.21
63554;BME280;49699;48.072;7.800;2023-04-20T11:34:25;98912.34;;;12.22;49.03
63554;BME280;49699;48.072;7.800;2023-04-20T11:36:50;98911.47;;;12.34;48.70
63554;BME280;49699;48.072;7.800;2023-04-20T11:39:25;98906.50;;;12.42;48.63
63554;BME280;49699;48.072;7.800;2023-04-20T11:41:52;98908.47;;;12.51;48.51
63554;BME280;49699;48.072;7.800;2023-04-20T11:44:18;98906.81;;;12.62;48.62
63554;BME280;49699;48.072;7.800;2023-04-20T11:46:45;98902.59;;;12.72;48.32
63554;BME280;49699;48.072;7.800;2023-04-20T11:49:10;98901.50;;;12.74;48.22
63554;BME280;49699;48.072;7.800;2023-04-20T11:51:36;98907.59;;;12.86;48.00
63554;BME280;49699;48.072;7.800;2023-04-20T11:54:01;98907.28;;;13.02;47.59
63554;BME280;49699;48.072;7.800;2023-04-20T11:56:26;98897.47;;;13.16;47.14
63554;BME280;49699;48.072;7.800;2023-04-20T11:58:52;98909.00;;;13.36;46.74
63554;BME280;49699;48.072;7.800;2023-04-20T12:01:17;98898.06;;;13.53;46.29
63554;BME280;49699;48.072;7.800;2023-04-20T12:03:42;98903.78;;;13.59;46.24
63554;BME280;49699;48.072;7.800;2023-04-20T12:06:08;98895.34;;;13.55;46.04
63554;BME280;49699;48.072;7.800;2023-04-20T12:08:33;98895.22;;;13.57;46.21
63554;BME280;49699;48.072;7.800;2023-04-20T12:10:58;98897.94;;;13.55;46.10
63554;BME280;49699;48.072;7.800;2023-04-20T12:13:24;98892.13;;;13.51;46.25
63554;BME280;49699;48.072;7.800;2023-04-20T12:15:49;98891.41;;;13.61;46.06
63554;BME280;49699;48.072;7.800;2023-04-20T12:18:14;98885.69;;;13.67;45.63
63554;BME280;49699;48.072;7.800;2023-04-20T12:20:40;98878.66;;;13.67;45.75
63554;BME280;49699;48.072;7.800;2023-04-20T12:23:06;98884.38;;;13.72;45.61
63554;BME280;49699;48.072;7.800;2023-04-20T12:25:31;98883.06;;;13.78;45.61
63554;BME280;49699;48.072;7.800;2023-04-20T12:27:56;98886.41;;;13.69;46.02
63554;BME280;49699;48.072;7.800;2023-04-20T12:30:21;98884.25;;;13.63;46.02
63554;BME280;49699;48.072;7.800;2023-04-20T12:32:47;98880.84;;;13.51;45.75
63554;BME280;49699;48.072;7.800;2023-04-20T12:35:12;98878.09;;;13.52;45.67
63554;BME280;49699;48.072;7.800;2023-04-20T12:37:37;98877.00;;;13.66;45.48
63554;BME280;49699;48.072;7.800;2023-04-20T12:40:03;98869.25;;;13.87;45.10
63554;BME280;49699;48.072;7.800;2023-04-20T12:42:30;98870.31;;;13.96;44.85
63554;BME280;49699;48.072;7.800;2023-04-20T12:44:55;98872.22;;;13.94;44.66
63554;BME280;49699;48.072;7.800;2023-04-20T12:47:20;98861.88;;;13.92;44.86
63554;BME280;49699;48.072;7.800;2023-04-20T12:49:48;98862.25;;;14.19;44.39
63554;BME280;49699;48.072;7.800;2023-04-20T12:52:13;98859.00;;;14.80;43.21
63554;BME280;49699;48.072;7.800;2023-04-20T12:54:38;98858.47;;;15.37;41.78
63554;BME280;49699;48.072;7.800;2023-04-20T12:57:03;98847.16;;;15.96;40.93
63554;BME280;49699;48.072;7.800;2023-04-20T12:59:29;98842.03;;;16.52;39.79
63554;BME280;49699;48.072;7.800;2023-04-20T13:01:54;98845.19;;;16.85;39.28
63554;BME280;49699;48.072;7.800;2023-04-20T13:04:19;98843.66;;;17.02;38.69
63554;BME280;49699;48.072;7.800;2023-04-20T13:06:45;98843.97;;;16.79;39.16
63554;BME280;49699;48.072;7.800;2023-04-20T13:09:10;98844.81;;;16.51;39.60
63554;BME280;49699;48.072;7.800;2023-04-20T13:11:35;98840.25;;;16.53;39.55